Saint Barthelemy, Saint-Barthélemy

7:37 AM AST on February 13, 2016 (GMT -0400)
Devet, St Barthelemy | | Change Station
CLOSE
Current Station
Personal Weather Station
Location: St Barthelemy, ST BARTHELEMY
Elevation: 509 ft
Nearby Weather Stations

Elev 509 ft 17.90 °N, 62.81 °W | Updated 14 minutes ago

Partly Cloudy
Partly Cloudy
74.2 °F
Feels Like 75 °F
N
3.6
Wind Variable Wind from SE
Gusts 6.5 mph

Today
High -- | Low -- °F
--% Chance of Precip.
Yesterday
High -- | Low -- °F
Precip. -- in
Pressure 30.04 in
Visibility 6.2 miles
Clouds Few 1800 ft
Heat Index 75 °F
Dew Point 66 °F
Humidity 77%
Rainfall 0.00 in
Snow Depth Not available.
6:39 AM 6:11 PM
Waxing Crescent, 30% visible
METAR TNCM 131100Z 12011KT 060V130 9999 FEW018 25/19 Q1017 A3004 NOSIG
Pressure 30.04 in
Visibility 6.2 miles
Clouds Few 1800 ft
Heat Index 75 °F
Dew Point 66 °F
Humidity 77%
Rainfall 0.00 in
Snow Depth Not available.
6:39 AM 6:11 PM
Waxing Crescent, 30% visible
METAR TNCM 131100Z 12011KT 060V130 9999 FEW018 25/19 Q1017 A3004 NOSIG

10-Day Weather Forecast

No radar image for this location.
×

Almanac

Astronomy

Feb. 13, 2016 Rise Set
Actual Time
Civil Twilight
Nautical Twilight
Astronomical Twilight
Moon
Length of Visible Light
Length of Day
Tomorrow will be .
, % of the Moon is Illuminated

Today's Extremes

Country Highs Country Lows

Community

WunderPhotos

Upload Photos

1,892,541 photos uploaded!

WunderBlog® & News

Nearby

Air Quality

  Air Quality AQ Index Pollutant
Not available.

Snow Depth

Station Depth Elevation

Earthquake Activity

City Distance Mag. Time & Date
Minimum magnitude displayed is 2.5.

Coastal Water Temperatures

Place Temperature

Stations

Nearby Weather Stations

Station Location Temp. Windchill Dew Point Humidity Wind Precip. Elev Updated Type